Time;durP1;ratioP1;P1;durP2;ratioP2;P2;SDS_P1;SDS_P2;PMS_P1;PMS_P2;Temp;Humidity;BMP_temperature;BMP_pressure;BME280_temperature;BME280_humidity;BME280_pressure;Samples;Min_cycle;Max_cycle;Signal;HPM_P1;HPM_P2
2022/01/15 00:00:08;;;;;;;38.15;18.35;;;;;;;0.08;100.00;98176.44;1824144;78;20924;-68
2022/01/15 00:02:37;;;;;;;20.75;10.85;;;;;;;0.08;100.00;98184.34;1823958;78;21462;-68
2022/01/15 00:05:05;;;;;;;62.03;27.87;;;;;;;0.03;100.00;98179.72;1824211;78;21015;-68
2022/01/15 00:07:31;;;;;;;30.75;13.40;;;;;;;0.05;100.00;98176.36;1824645;78;21514;-71
2022/01/15 00:09:58;;;;;;;62.93;27.30;;;;;;;0.09;100.00;98179.35;1824122;78;20995;-67
2022/01/15 00:12:25;;;;;;;120.95;52.65;;;;;;;0.12;100.00;98192.92;1824524;78;20921;-69
2022/01/15 00:14:53;;;;;;;47.93;21.52;;;;;;;0.14;100.00;98175.02;1824363;78;21028;-68
2022/01/15 00:17:44;;;;;;;108.45;40.50;;;;;;;0.14;100.00;98180.30;1824180;78;20881;-69
2022/01/15 00:19:50;;;;;;;51.25;21.37;;;;;;;0.11;100.00;98184.70;1809597;78;21509;-67
2022/01/15 00:22:18;;;;;;;23.10;9.40;;;;;;;0.14;100.00;98197.97;1824292;78;20948;-72
2022/01/15 00:24:46;;;;;;;92.25;35.90;;;;;;;0.18;100.00;98202.59;1756582;81;21004;-69
2022/01/15 00:27:12;;;;;;;32.10;14.35;;;;;;;0.16;100.00;98208.59;1788053;80;20932;-70
2022/01/15 00:29:39;;;;;;;40.92;15.72;;;;;;;0.18;100.00;98196.00;1755009;81;20997;-70
2022/01/15 00:32:07;;;;;;;19.48;11.20;;;;;;;0.18;100.00;98198.63;1756615;81;21188;-72
2022/01/15 00:34:36;;;;;;;8.90;5.22;;;;;;;0.20;100.00;98210.30;1782720;80;21513;-68
2022/01/15 00:37:03;;;;;;;39.73;15.95;;;;;;;0.23;100.00;98208.53;1757153;81;20999;-70
2022/01/15 00:39:31;;;;;;;70.80;28.05;;;;;;;0.20;100.00;98219.53;1752745;81;20976;-70
2022/01/15 00:41:57;;;;;;;19.85;7.80;;;;;;;0.13;100.00;98221.44;1818431;79;21094;-69
2022/01/15 00:44:24;;;;;;;35.63;12.80;;;;;;;0.12;100.00;98236.95;1818324;79;21171;-68
2022/01/15 00:46:51;;;;;;;9.93;6.37;;;;;;;0.17;100.00;98218.14;1816697;78;20984;-69
2022/01/15 00:49:23;;;;;;;31.82;13.15;;;;;;;0.13;100.00;98230.67;1823786;78;20957;-70
2022/01/15 00:51:51;;;;;;;21.17;10.88;;;;;;;0.16;100.00;98230.22;1789720;78;21505;-70
2022/01/15 00:54:18;;;;;;;19.67;10.38;;;;;;;0.10;100.00;98217.41;1786483;80;20968;-62
2022/01/15 00:56:44;;;;;;;34.60;16.15;;;;;;;0.12;100.00;98225.08;1786111;80;21164;-68
2022/01/15 00:59:13;;;;;;;43.65;20.08;;;;;;;0.17;99.95;98229.19;1786174;80;21502;-70
2022/01/15 01:01:40;;;;;;;20.37;10.70;;;;;;;0.23;97.89;98216.45;1786159;80;20877;-67
2022/01/15 01:04:07;;;;;;;17.05;10.58;;;;;;;0.26;98.79;98233.68;1786331;80;21523;-69
2022/01/15 01:06:34;;;;;;;21.50;12.35;;;;;;;0.26;99.32;98233.68;1786300;80;20909;-69
2022/01/15 01:09:01;;;;;;;16.48;10.95;;;;;;;0.21;100.00;98225.89;1786261;80;21907;-70
2022/01/15 01:11:42;;;;;;;45.17;22.52;;;;;;;0.14;100.00;98223.83;1786295;80;20989;-70
2022/01/15 01:22:52;;;;;;;18.20;9.23;;;;;;;0.05;99.31;98221.21;1786647;80;21150;-67
2022/01/15 01:24:40;;;;;;;11.55;6.78;;;;;;;0.03;99.50;98254.11;1780141;79;21572;-69
2022/01/15 01:27:23;;;;;;;14.40;4.37;;;;;;;0.14;97.09;98257.34;1786466;80;20956;-71
2022/01/15 01:30:10;;;;;;;109.17;43.17;;;;;;;0.16;94.63;98244.22;1785150;80;21040;-67
2022/01/15 01:32:40;;;;;;;31.42;6.22;;;;;;;0.24;95.82;98256.84;1784207;80;21387;-67
2022/01/15 01:35:04;;;;;;;32.15;15.35;;;;;;;0.29;94.19;98256.98;1771046;80;21024;-71
2022/01/15 01:37:35;;;;;;;15.90;7.78;;;;;;;0.32;95.57;98282.45;1788199;79;21675;-70
2022/01/15 01:40:07;;;;;;;19.98;9.45;;;;;;;0.29;95.28;98280.22;1785473;80;21404;-69
2022/01/15 01:45:08;;;;;;;12.40;6.25;;;;;;;0.28;96.73;98266.74;1787324;80;20917;-69
2022/01/15 01:47:45;;;;;;;6.08;4.58;;;;;;;0.26;97.26;98281.19;1786690;80;21173;-69
2022/01/15 01:50:14;;;;;;;34.55;15.43;;;;;;;0.34;95.55;98276.93;1783773;80;20968;-70
2022/01/15 01:52:42;;;;;;;51.08;19.40;;;;;;;0.32;96.62;98267.92;1786452;80;20925;-67
2022/01/15 01:55:11;;;;;;;20.60;11.10;;;;;;;0.27;98.01;98286.25;1786731;79;26626;-69
2022/01/15 01:57:37;;;;;;;;;;;;;;;0.23;96.96;98279.79;1789510;79;21020;-71
2022/01/15 02:00:08;;;;;;;23.35;10.35;;;;;;;0.27;97.47;98282.78;1786405;80;21161;-69
2022/01/15 02:02:37;;;;;;;23.60;10.75;;;;;;;0.27;96.70;98292.02;1785121;80;20953;-69
2022/01/15 02:05:06;;;;;;;27.13;11.90;;;;;;;0.27;97.45;98292.02;1786688;80;20918;-71
2022/01/15 02:07:35;;;;;;;21.25;9.65;;;;;;;0.28;97.78;98292.34;1786465;80;21419;-66
2022/01/15 02:10:09;;;;;;;25.68;13.43;;;;;;;0.24;98.45;98295.11;1786763;80;20954;-67
2022/01/15 02:12:36;;;;;;;7.05;4.58;;;;;;;0.25;98.80;98296.22;1786768;80;21150;-65
2022/01/15 02:15:12;;;;;;;11.83;8.23;;;;;;;0.28;97.77;98289.70;1786952;80;21002;-68
2022/01/15 02:17:42;;;;;;;21.23;11.38;;;;;;;0.32;98.23;98308.01;1786493;80;21478;-70
2022/01/15 02:25:57;;;;;;;17.87;9.65;;;;;;;0.30;98.68;98308.77;1786830;80;21152;-68
2022/01/15 02:28:27;;;;;;;18.17;9.30;;;;;;;0.29;100.00;98316.37;1786603;80;21419;-69
2022/01/15 02:30:58;;;;;;;8.25;4.40;;;;;;;0.26;99.96;98294.37;1786668;80;20934;-68
2022/01/15 02:33:25;;;;;;;20.00;9.00;;;;;;;0.32;99.97;98314.61;1786354;80;20939;-66
2022/01/15 02:35:53;;;;;;;6.62;4.83;;;;;;;0.27;100.00;98308.69;1786596;80;20993;-65
2022/01/15 02:38:19;;;;;;;14.68;6.87;;;;;;;0.28;99.09;98299.73;1787079;80;21797;-69
2022/01/15 02:40:46;;;;;;;9.73;6.12;;;;;;;0.32;100.00;98321.20;1789053;79;21438;-70
2022/01/15 02:43:18;;;;;;;28.57;19.12;;;;;;;0.30;100.00;98324.08;1799996;78;20933;-69
2022/01/15 02:45:46;;;;;;;116.77;78.92;;;;;;;0.31;99.89;98326.20;1799173;78;21474;-69
2022/01/15 02:48:18;;;;;;;8.23;6.85;;;;;;;0.32;99.58;98322.04;1794813;79;21043;-70
2022/01/15 02:50:46;;;;;;;18.07;12.93;;;;;;;0.33;100.00;98332.08;1793704;79;21164;-70
2022/01/15 02:53:17;;;;;;;14.53;6.50;;;;;;;0.30;100.00;98332.52;1811532;78;21414;-69
2022/01/15 02:55:48;;;;;;;24.15;13.98;;;;;;;0.27;100.00;98329.80;1801115;79;20916;-69
2022/01/15 02:58:16;;;;;;;10.75;8.30;;;;;;;0.26;100.00;98336.61;1810116;78;21009;-70
2022/01/15 03:00:43;;;;;;;8.20;5.95;;;;;;;0.24;100.00;98326.25;1817826;78;20933;-68
2022/01/15 03:03:10;;;;;;;10.35;6.50;;;;;;;0.25;100.00;98340.28;1789261;78;21034;-69
2022/01/15 03:05:38;;;;;;;4.55;4.15;;;;;;;0.27;100.00;98344.80;1785784;79;20991;-68
2022/01/15 03:08:04;;;;;;;8.55;5.47;;;;;;;0.28;100.00;98351.72;1788439;78;20889;-67
2022/01/15 03:10:32;;;;;;;19.87;11.40;;;;;;;0.27;100.00;98356.69;1788430;79;20944;-68
2022/01/15 03:13:01;;;;;;;10.82;6.55;;;;;;;0.24;100.00;98320.17;1786325;80;20924;-70
2022/01/15 03:15:29;;;;;;;10.50;5.40;;;;;;;0.23;100.00;98350.24;1786532;80;21122;-71
2022/01/15 03:17:55;;;;;;;7.53;6.33;;;;;;;0.18;100.00;98350.37;1786591;80;20822;-69
2022/01/15 03:20:22;;;;;;;10.82;4.50;;;;;;;0.15;100.00;98355.28;1816057;79;20933;-71
2022/01/15 03:22:48;;;;;;;5.65;4.65;;;;;;;0.05;100.00;98312.23;1811848;78;20932;-68
2022/01/15 03:25:15;;;;;;;7.58;6.45;;;;;;;0.03;100.00;98355.69;1808107;78;21545;-70
2022/01/15 03:27:42;;;;;;;8.38;6.25;;;;;;;-0.01;100.00;98332.86;1806808;78;21230;-68
2022/01/15 03:30:11;;;;;;;9.90;4.42;;;;;;;0.04;100.00;98343.58;1789283;78;26352;-72
2022/01/15 03:32:42;;;;;;;6.73;5.60;;;;;;;0.10;100.00;98356.41;1816760;78;21520;-70
2022/01/15 03:35:08;;;;;;;6.05;5.50;;;;;;;0.10;100.00;98356.41;1803232;78;21756;-70
2022/01/15 03:37:34;;;;;;;6.47;5.67;;;;;;;0.09;100.00;98362.73;1791801;78;20865;-68
2022/01/15 03:40:01;;;;;;;9.45;5.97;;;;;;;0.10;100.00;98353.28;1786335;80;21514;-69
2022/01/15 03:42:28;;;;;;;17.00;9.68;;;;;;;0.10;100.00;98368.28;1786298;79;20932;-64
2022/01/15 03:44:55;;;;;;;19.80;9.68;;;;;;;0.06;100.00;98361.33;1744025;81;21009;-69
2022/01/15 03:47:21;;;;;;;12.65;6.97;;;;;;;0.11;100.00;98366.77;1745600;81;20929;-66
2022/01/15 03:49:48;;;;;;;11.28;5.72;;;;;;;0.16;100.00;98368.77;1786699;80;20951;-69
2022/01/15 03:52:14;;;;;;;6.20;4.45;;;;;;;0.23;100.00;98385.35;1786925;80;21072;-71
2022/01/15 03:54:41;;;;;;;10.23;5.50;;;;;;;0.24;100.00;98379.55;1786433;80;21497;-70
2022/01/15 03:57:07;;;;;;;6.35;5.33;;;;;;;0.26;100.00;98369.08;1786932;80;20947;-71
2022/01/15 03:59:35;;;;;;;9.78;6.75;;;;;;;0.27;100.00;98370.72;1744378;80;21508;-67
2022/01/15 04:02:04;;;;;;;19.35;9.65;;;;;;;0.32;100.00;98369.55;1784713;80;21545;-71
2022/01/15 04:04:32;;;;;;;24.87;11.50;;;;;;;0.34;100.00;98335.83;1786784;80;21136;-71
2022/01/15 04:06:59;;;;;;;18.50;8.65;;;;;;;0.38;100.00;98384.50;1786575;79;21009;-70
2022/01/15 04:09:25;;;;;;;18.98;9.63;;;;;;;0.40;99.19;98385.63;1786726;80;21535;-69
2022/01/15 04:11:52;;;;;;;20.08;9.78;;;;;;;0.49;98.66;98383.01;1787130;80;20870;-70
2022/01/15 04:14:18;;;;;;;11.45;6.58;;;;;;;0.51;99.79;98394.14;1766864;80;21560;-68
2022/01/15 04:16:46;;;;;;;16.07;8.23;;;;;;;0.45;100.00;98393.70;1789046;79;21224;-72
2022/01/15 04:19:13;;;;;;;13.85;8.23;;;;;;;0.45;100.00;98396.86;1786264;80;20918;-69
2022/01/15 04:21:41;;;;;;;19.93;10.40;;;;;;;0.45;100.00;98383.14;1786855;80;20928;-68
2022/01/15 04:24:08;;;;;;;6.50;5.45;;;;;;;0.47;100.00;98396.94;1786479;80;20984;-68
2022/01/15 04:26:34;;;;;;;20.45;12.65;;;;;;;0.50;100.00;98407.05;1786903;79;20984;-69
2022/01/15 04:29:06;;;;;;;6.65;5.58;;;;;;;0.45;100.00;98406.90;1786564;79;21144;-69
2022/01/15 04:31:47;;;;;;;11.38;7.12;;;;;;;0.50;100.00;98407.58;1786571;80;21399;-69
2022/01/15 04:34:19;;;;;;;10.75;6.30;;;;;;;0.48;100.00;98410.42;1786644;79;21435;-69
2022/01/15 04:36:49;;;;;;;13.10;8.60;;;;;;;0.50;100.00;98410.22;1786772;80;21389;-71
2022/01/15 04:39:16;;;;;;;9.03;5.22;;;;;;;0.50;100.00;98401.77;1786749;79;20956;-66
2022/01/15 04:41:42;;;;;;;6.97;5.78;;;;;;;0.45;100.00;98400.30;1788237;79;21885;-68
2022/01/15 04:44:09;;;;;;;7.72;5.37;;;;;;;0.47;100.00;98408.81;1803109;78;20982;-69
2022/01/15 04:46:37;;;;;;;13.40;7.80;;;;;;;0.51;100.00;98403.90;1819003;79;21399;-66
2022/01/15 04:49:05;;;;;;;8.58;6.00;;;;;;;0.50;100.00;98398.33;1819188;78;21549;-68
2022/01/15 04:51:33;;;;;;;5.78;5.15;;;;;;;0.54;100.00;98415.34;1818878;79;21000;-69
2022/01/15 04:53:59;;;;;;;6.55;5.80;;;;;;;0.54;100.00;98432.02;1751993;82;21179;-70
2022/01/15 04:56:26;;;;;;;13.00;8.98;;;;;;;0.52;100.00;98432.73;1751899;82;21016;-70
2022/01/15 04:58:54;;;;;;;8.08;7.35;;;;;;;0.48;100.00;98418.86;1819134;78;20908;-71
2022/01/15 05:01:21;;;;;;;6.30;5.70;;;;;;;0.50;100.00;98412.86;1751975;82;20942;-68
2022/01/15 05:03:47;;;;;;;8.83;5.62;;;;;;;0.51;100.00;98434.26;1752085;80;21005;-71
2022/01/15 05:06:15;;;;;;;14.18;8.88;;;;;;;0.48;100.00;98433.38;1818895;79;21139;-69
2022/01/15 05:08:44;;;;;;;6.67;5.23;;;;;;;0.49;100.00;98445.55;1819005;79;20909;-70
2022/01/15 05:11:29;;;;;;;7.25;5.50;;;;;;;0.49;100.00;98426.58;1751844;82;20982;-70
2022/01/15 05:13:44;;;;;;;5.97;5.00;;;;;;;0.50;100.00;98428.70;1753412;81;20965;-67
2022/01/15 05:16:11;;;;;;;13.95;7.80;;;;;;;0.53;100.00;98433.02;1753157;81;21525;-71
2022/01/15 05:18:38;;;;;;;7.65;5.05;;;;;;;0.53;100.00;98457.30;1818921;79;21222;-70
2022/01/15 05:21:04;;;;;;;12.35;7.83;;;;;;;0.54;100.00;98454.45;1782843;80;21487;-71
2022/01/15 05:23:31;;;;;;;9.08;5.15;;;;;;;0.48;100.00;98438.14;1771146;80;20905;-69
2022/01/15 05:25:57;;;;;;;16.30;11.45;;;;;;;0.52;100.00;98457.02;1757147;81;20991;-70
2022/01/15 05:28:24;;;;;;;22.95;11.97;;;;;;;0.51;100.00;98460.66;1711625;82;20952;-69
2022/01/15 05:30:51;;;;;;;31.45;15.08;;;;;;;0.50;100.00;98453.78;1783474;78;21157;-65
2022/01/15 05:33:19;;;;;;;40.55;19.57;;;;;;;0.55;100.00;98467.94;1790749;78;26689;-67
2022/01/15 05:35:45;;;;;;;18.57;6.85;;;;;;;0.51;100.00;98468.59;1792800;79;20980;-67
2022/01/15 05:38:12;;;;;;;15.38;10.35;;;;;;;0.51;100.00;98434.26;1787834;78;20993;-69
2022/01/15 05:40:39;;;;;;;31.85;16.17;;;;;;;0.55;100.00;98466.63;1807143;78;21034;-67
2022/01/15 05:43:05;;;;;;;23.65;13.85;;;;;;;0.56;100.00;98447.63;1786036;80;21173;-69
2022/01/15 05:45:32;;;;;;;45.12;27.30;;;;;;;0.61;100.00;98471.55;1786080;80;20920;-68
2022/01/15 05:47:59;;;;;;;35.28;17.90;;;;;;;0.57;100.00;98470.38;1786707;78;21081;-72
2022/01/15 05:50:25;;;;;;;12.40;7.70;;;;;;;0.55;100.00;98453.94;1802235;78;20963;-66
2022/01/15 05:52:52;;;;;;;16.87;12.05;;;;;;;0.54;100.00;98468.15;1790084;78;20983;-70
2022/01/15 05:55:19;;;;;;;11.00;8.55;;;;;;;0.50;100.00;98480.98;1809766;79;21157;-67
2022/01/15 05:57:46;;;;;;;14.50;8.03;;;;;;;0.49;100.00;98485.98;1749962;82;20853;-70
2022/01/15 06:00:14;;;;;;;6.53;5.90;;;;;;;0.53;100.00;98492.95;1726638;81;20967;-69
2022/01/15 06:02:41;;;;;;;7.15;6.50;;;;;;;0.55;100.00;98495.67;1786403;80;20986;-66
2022/01/15 06:05:09;;;;;;;6.72;6.08;;;;;;;0.54;100.00;98497.19;1802137;79;20998;-68
2022/01/15 06:07:36;;;;;;;7.17;6.43;;;;;;;0.53;100.00;98496.91;1812309;79;21154;-67
2022/01/15 06:10:03;;;;;;;9.53;6.42;;;;;;;0.53;100.00;98501.67;1818276;79;20936;-68
2022/01/15 06:12:33;;;;;;;6.40;5.75;;;;;;;0.51;100.00;98510.31;1809665;78;21035;-68
2022/01/15 06:15:00;;;;;;;7.10;5.72;;;;;;;0.52;100.00;98482.10;1813357;79;20908;-68
2022/01/15 06:17:27;;;;;;;12.70;10.47;;;;;;;0.56;100.00;98503.88;1818533;79;20924;-69
2022/01/15 06:19:54;;;;;;;16.12;13.10;;;;;;;0.52;100.00;98521.70;1817438;79;21106;-69
2022/01/15 06:22:20;;;;;;;19.77;11.48;;;;;;;0.54;100.00;98513.03;1791843;79;21035;-67
2022/01/15 06:24:47;;;;;;;14.18;10.55;;;;;;;0.57;100.00;98524.00;1786053;80;20928;-69
2022/01/15 06:27:16;;;;;;;5.40;4.80;;;;;;;0.55;100.00;98514.16;1807296;79;20960;-67
2022/01/15 06:29:44;;;;;;;31.17;17.32;;;;;;;0.54;100.00;98523.59;1817412;79;21530;-71
2022/01/15 06:32:11;;;;;;;15.05;9.45;;;;;;;0.53;100.00;98523.31;1808801;78;21129;-71
2022/01/15 06:34:38;;;;;;;23.60;12.28;;;;;;;0.51;100.00;98528.80;1803018;78;21028;-71
2022/01/15 06:37:05;;;;;;;32.38;14.23;;;;;;;0.55;100.00;98540.56;1784390;79;20897;-71
2022/01/15 06:39:33;;;;;;;26.68;12.78;;;;;;;0.57;100.00;98535.08;1793558;78;20999;-68
2022/01/15 06:42:01;;;;;;;21.33;9.77;;;;;;;0.57;100.00;98542.48;1806496;79;21570;-72
2022/01/15 06:44:27;;;;;;;41.25;18.00;;;;;;;0.59;100.00;98548.88;1804727;79;21150;-71
2022/01/15 06:46:55;;;;;;;21.87;11.25;;;;;;;0.58;100.00;98522.95;1786092;80;21007;-69
2022/01/15 06:49:22;;;;;;;11.80;7.70;;;;;;;0.61;100.00;98554.73;1786230;80;21035;-73
2022/01/15 06:51:49;;;;;;;39.53;18.42;;;;;;;0.61;100.00;98546.81;1794379;79;21518;-71
2022/01/15 06:54:15;;;;;;;39.75;17.92;;;;;;;0.60;100.00;98555.25;1793741;79;21478;-70
2022/01/15 06:56:43;;;;;;;53.83;20.57;;;;;;;0.61;100.00;98561.34;1794826;79;21153;-72
2022/01/15 06:59:10;;;;;;;24.80;12.40;;;;;;;0.58;100.00;98560.45;1786161;80;20948;-71
2022/01/15 07:01:37;;;;;;;50.05;20.62;;;;;;;0.57;100.00;98558.33;1786582;80;20893;-70
2022/01/15 07:04:04;;;;;;;19.70;11.22;;;;;;;0.54;100.00;98561.89;1808144;78;21583;-70
2022/01/15 07:06:32;;;;;;;24.97;13.33;;;;;;;0.53;100.00;98565.05;1786451;78;21293;-71
2022/01/15 07:08:59;;;;;;;13.88;7.55;;;;;;;0.60;100.00;98567.66;1787995;79;21164;-72
2022/01/15 07:11:39;;;;;;;26.23;11.97;;;;;;;0.60;100.00;98561.05;1803587;78;21126;-72
2022/01/15 07:14:09;;;;;;;11.10;6.47;;;;;;;0.61;100.00;98571.41;1751048;81;21581;-68
2022/01/15 07:16:51;;;;;;;;;;;;;;;;;;;;;
2022/01/15 07:19:30;;;;;;;;;;;;;;;;;;;;;
2022/01/15 07:21:51;;;;;;;7.55;5.10;;;;;;;0.66;100.00;98587.91;1760982;80;21011;-69
2022/01/15 07:24:17;;;;;;;21.20;11.03;;;;;;;0.63;100.00;98590.47;1733514;80;20979;-72
2022/01/15 07:26:45;;;;;;;15.68;8.80;;;;;;;0.64;100.00;98589.47;1770524;79;20979;-75
2022/01/15 07:29:42;;;;;;;13.45;7.10;;;;;;;0.67;100.00;98588.75;1762187;80;21532;-69
2022/01/15 07:31:59;;;;;;;12.75;7.60;;;;;;;0.66;100.00;98595.03;1747837;81;20947;-69
2022/01/15 07:34:26;;;;;;;24.52;11.57;;;;;;;0.68;100.00;98593.80;1754846;81;21819;-68
2022/01/15 07:36:57;;;;;;;13.98;7.75;;;;;;;0.70;100.00;98609.44;1762052;80;20939;-73
2022/01/15 07:39:24;;;;;;;16.60;9.30;;;;;;;0.73;100.00;98595.80;1704872;81;21564;-71
2022/01/15 07:41:51;;;;;;;9.48;6.50;;;;;;;0.75;100.00;98599.05;1755090;81;20973;-71
2022/01/15 07:44:19;;;;;;;22.75;10.65;;;;;;;0.71;100.00;98608.41;1757399;80;21043;-71
2022/01/15 07:46:49;;;;;;;15.68;8.08;;;;;;;0.72;100.00;98608.72;1774673;80;21543;-66
2022/01/15 07:49:17;;;;;;;46.68;22.55;;;;;;;0.69;100.00;98577.46;1765397;80;20984;-68
2022/01/15 07:51:44;;;;;;;25.95;13.78;;;;;;;0.74;100.00;98615.92;1765698;80;20980;-71
2022/01/15 07:54:11;;;;;;;43.08;28.80;;;;;;;0.74;100.00;98617.25;1758084;80;20999;-70
2022/01/15 07:56:38;;;;;;;526.67;415.90;;;;;;;0.77;100.00;98628.70;1754859;80;21852;-66
2022/01/15 07:59:05;;;;;;;81.75;74.10;;;;;;;0.73;100.00;98627.50;1759030;80;21911;-72
2022/01/15 08:01:33;;;;;;;52.95;30.57;;;;;;;0.71;100.00;98622.45;1780237;80;21034;-71
2022/01/15 08:04:03;;;;;;;46.53;37.48;;;;;;;0.74;100.00;98624.66;1774523;79;21063;-73
2022/01/15 08:06:30;;;;;;;129.50;56.13;;;;;;;0.72;100.00;98637.26;1731839;81;21524;-72
2022/01/15 08:08:56;;;;;;;120.47;46.75;;;;;;;0.76;100.00;98629.70;1755043;80;21071;-74
2022/01/15 08:11:23;;;;;;;279.48;101.82;;;;;;;0.73;100.00;98628.30;1755230;81;21774;-73
2022/01/15 08:13:50;;;;;;;61.10;26.55;;;;;;;0.72;100.00;98639.09;1752947;80;21035;-69
2022/01/15 08:16:18;;;;;;;122.20;49.05;;;;;;;0.67;100.00;98629.17;1758287;80;20962;-74
2022/01/15 08:18:47;;;;;;;145.32;59.53;;;;;;;0.68;100.00;98614.92;1754103;80;20959;-73
2022/01/15 08:21:14;;;;;;;73.65;31.87;;;;;;;0.69;100.00;98631.61;1763931;80;20975;-72
2022/01/15 08:23:42;;;;;;;124.23;50.33;;;;;;;0.69;100.00;98641.66;1773789;80;21066;-71
2022/01/15 08:26:09;;;;;;;60.88;29.12;;;;;;;0.76;100.00;98652.16;1764277;80;21042;-68
2022/01/15 08:28:39;;;;;;;45.98;21.65;;;;;;;0.79;100.00;98646.47;1756613;80;20972;-70
2022/01/15 08:31:07;;;;;;;60.70;28.00;;;;;;;0.79;100.00;98642.00;1765655;80;21008;-72
2022/01/15 08:33:34;;;;;;;121.15;56.42;;;;;;;0.82;100.00;98650.81;1784878;80;20976;-71
2022/01/15 08:36:01;;;;;;;68.60;30.95;;;;;;;0.79;100.00;98650.44;1756096;80;21796;-71
2022/01/15 08:38:28;;;;;;;47.27;22.45;;;;;;;0.78;100.00;98644.32;1754522;80;21563;-70
2022/01/15 08:40:57;;;;;;;32.90;17.60;;;;;;;0.88;100.00;98636.45;1754277;81;20888;-72
2022/01/15 08:43:23;;;;;;;11.40;8.43;;;;;;;0.95;100.00;98634.58;1766621;80;21544;-73
2022/01/15 08:45:51;;;;;;;16.80;14.45;;;;;;;0.94;100.00;98640.89;1772163;80;21082;-72
2022/01/15 08:48:19;;;;;;;9.53;7.08;;;;;;;1.00;100.00;98651.91;1757201;80;21135;-70
2022/01/15 08:50:49;;;;;;;11.03;8.43;;;;;;;1.04;100.00;98653.12;1764487;81;20999;-70
2022/01/15 08:53:18;;;;;;;9.98;5.90;;;;;;;1.09;100.00;98645.36;1769411;80;20908;-72
2022/01/15 08:55:45;;;;;;;9.18;7.05;;;;;;;1.09;100.00;98657.77;1767094;79;28507;-71
2022/01/15 08:58:13;;;;;;;;;;;;;;;1.06;100.00;98658.48;1770340;79;20996;-71
2022/01/15 09:00:40;;;;;;;10.10;7.15;;;;;;;1.07;100.00;98655.33;1772258;80;21064;-73
2022/01/15 09:03:13;;;;;;;16.05;11.00;;;;;;;1.15;100.00;98660.37;1755225;80;21008;-73
2022/01/15 09:05:41;;;;;;;28.25;17.25;;;;;;;1.16;100.00;98663.81;1759116;79;21493;-71
2022/01/15 09:08:09;;;;;;;10.65;7.62;;;;;;;1.09;100.00;98665.69;1727099;81;21064;-71
2022/01/15 09:10:41;;;;;;;17.00;10.43;;;;;;;1.03;100.00;98676.09;1731210;81;21601;-71
2022/01/15 09:13:10;;;;;;;14.47;9.43;;;;;;;1.19;100.00;98673.95;1727534;81;21934;-71
2022/01/15 09:15:38;;;;;;;16.12;9.10;;;;;;;1.18;100.00;98673.16;1732552;81;21350;-72
2022/01/15 09:18:06;;;;;;;13.20;7.47;;;;;;;1.27;100.00;98673.68;1755635;80;21010;-71
2022/01/15 09:20:33;;;;;;;12.60;7.90;;;;;;;1.24;100.00;98651.65;1754289;81;21020;-70
2022/01/15 09:23:00;;;;;;;10.90;7.55;;;;;;;1.17;100.00;98675.48;1770348;80;21642;-73
2022/01/15 09:25:27;;;;;;;9.38;6.15;;;;;;;1.17;100.00;98666.75;1758370;80;21062;-71
2022/01/15 09:30:41;;;;;;;16.65;9.50;;;;;;;1.16;100.00;98679.67;1763988;80;21007;-67
2022/01/15 09:33:08;;;;;;;34.83;17.30;;;;;;;1.22;100.00;98685.41;1767458;80;20983;-72
2022/01/15 09:35:37;;;;;;;22.48;11.93;;;;;;;1.32;100.00;98691.55;1772442;80;21553;-71
2022/01/15 09:38:04;;;;;;;20.72;10.55;;;;;;;1.30;100.00;98678.56;1741072;82;21142;-72
2022/01/15 09:40:31;;;;;;;18.12;9.73;;;;;;;1.40;100.00;98679.41;1787237;79;21006;-69
2022/01/15 09:42:58;;;;;;;15.72;8.03;;;;;;;1.40;100.00;98681.53;1767797;80;21431;-70
2022/01/15 09:45:26;;;;;;;29.15;12.73;;;;;;;1.38;100.00;98682.77;1769655;80;21055;-74
2022/01/15 09:47:58;;;;;;;;;;;;;;;1.36;100.00;98684.30;1765281;79;20969;-72
2022/01/15 09:50:28;;;;;;;32.38;16.80;;;;;;;1.30;100.00;98681.20;1755340;79;20883;-72
2022/01/15 09:52:56;;;;;;;14.65;8.00;;;;;;;1.30;100.00;98674.59;1767882;80;20916;-73
2022/01/15 09:55:23;;;;;;;14.87;8.63;;;;;;;1.32;100.00;98679.66;1754236;81;21577;-71
2022/01/15 09:57:50;;;;;;;20.77;10.63;;;;;;;1.32;100.00;98685.74;1762040;80;21063;-69
2022/01/15 10:00:20;;;;;;;14.78;8.95;;;;;;;1.29;100.00;98657.09;1773826;80;21725;-71
2022/01/15 10:02:51;;;;;;;30.45;17.15;;;;;;;1.26;100.00;98690.58;1767550;80;21128;-74
2022/01/15 10:05:18;;;;;;;19.07;10.78;;;;;;;1.30;100.00;98669.31;1759366;79;20984;-69
2022/01/15 10:08:00;;;;;;;10.13;6.85;;;;;;;1.30;100.00;98689.14;1761978;80;21490;-69
2022/01/15 10:10:32;;;;;;;10.38;6.35;;;;;;;1.33;100.00;98691.34;1760792;80;20992;-67
2022/01/15 10:13:21;;;;;;;9.25;5.47;;;;;;;1.32;100.00;98696.84;1771397;80;21066;-70
2022/01/15 10:16:02;;;;;;;18.67;10.45;;;;;;;1.33;100.00;98690.54;1770247;80;21427;-69
2022/01/15 10:18:32;;;;;;;13.68;7.50;;;;;;;1.32;100.00;98667.23;1762008;80;20905;-71
2022/01/15 10:21:13;;;;;;;22.87;12.00;;;;;;;1.47;100.00;98688.90;1755541;80;20933;-69
2022/01/15 10:23:54;;;;;;;7.85;5.00;;;;;;;1.56;100.00;98700.00;1712690;83;21482;-65
2022/01/15 10:26:24;;;;;;;12.33;6.15;;;;;;;1.46;100.00;98707.62;1712961;83;21084;-69
2022/01/15 10:29:02;;;;;;;13.65;6.90;;;;;;;1.42;100.00;98709.06;1717096;82;21073;-71
2022/01/15 10:31:31;;;;;;;10.45;7.10;;;;;;;1.38;100.00;98717.14;1744940;80;20991;-68
2022/01/15 10:34:00;;;;;;;8.85;5.78;;;;;;;1.40;100.00;98711.94;1756378;81;21120;-67
2022/01/15 10:36:32;;;;;;;10.90;7.08;;;;;;;1.38;100.00;98707.89;1758000;80;21473;-71
2022/01/15 10:39:18;;;;;;;10.85;6.92;;;;;;;1.32;100.00;98709.53;1756712;79;21059;-73
2022/01/15 10:41:47;;;;;;;21.10;10.72;;;;;;;1.17;100.00;98715.13;1760163;80;21816;-69
2022/01/15 10:44:34;;;;;;;8.08;4.58;;;;;;;1.20;100.00;98711.25;1766883;79;21032;-67
2022/01/15 10:47:05;;;;;;;20.88;11.95;;;;;;;1.14;100.00;98701.02;1774478;80;20932;-69
2022/01/15 10:49:32;;;;;;;13.35;11.95;;;;;;;1.27;100.00;98722.59;1760722;80;21416;-70
2022/01/15 10:52:20;;;;;;;35.92;32.05;;;;;;;1.29;100.00;98720.55;1742184;81;20956;-67
2022/01/15 10:55:06;;;;;;;30.68;27.60;;;;;;;1.32;100.00;98725.41;1732348;81;21145;-68
2022/01/15 10:57:38;;;;;;;24.30;21.90;;;;;;;1.24;100.00;98723.03;1688544;82;20967;-69
2022/01/15 11:00:15;;;;;;;31.82;28.40;;;;;;;1.34;100.00;98727.84;1711662;83;21033;-68
2022/01/15 11:02:49;;;;;;;32.13;22.95;;;;;;;1.30;100.00;98730.12;1704593;83;21486;-64
2022/01/15 11:05:26;;;;;;;34.45;31.75;;;;;;;1.13;100.00;98712.63;1769201;80;20960;-69
2022/01/15 11:07:54;;;;;;;89.30;62.78;;;;;;;1.07;100.00;98716.91;1758856;80;21065;-69
2022/01/15 11:10:20;;;;;;;56.40;30.00;;;;;;;1.13;100.00;98732.95;1702762;81;21044;-72
2022/01/15 11:12:48;;;;;;;38.02;18.40;;;;;;;1.17;100.00;98732.83;1722315;83;20984;-64
2022/01/15 11:15:16;;;;;;;59.63;26.65;;;;;;;1.17;100.00;98734.95;1723645;81;21466;-69
2022/01/15 11:17:44;;;;;;;52.85;23.18;;;;;;;1.34;100.00;98734.45;1743170;82;21012;-67
2022/01/15 11:20:12;;;;;;;21.70;11.93;;;;;;;1.37;100.00;98734.02;1694905;81;21973;-67
2022/01/15 11:22:40;;;;;;;59.93;29.63;;;;;;;1.36;100.00;98741.14;1754855;81;21034;-63
2022/01/15 11:25:09;;;;;;;32.50;15.95;;;;;;;1.27;100.00;98727.87;1763648;80;21510;-68
2022/01/15 11:27:35;;;;;;;25.10;13.68;;;;;;;1.19;100.00;98730.27;1757437;80;20952;-64
2022/01/15 11:30:03;;;;;;;15.13;8.08;;;;;;;1.17;100.00;98729.67;1772936;80;21462;-67
2022/01/15 11:32:32;;;;;;;16.85;10.10;;;;;;;1.10;100.00;98727.58;1758245;79;21083;-69
2022/01/15 11:35:03;;;;;;;12.90;7.90;;;;;;;1.09;100.00;98738.38;1764742;79;21027;-66
2022/01/15 11:37:52;;;;;;;45.05;23.22;;;;;;;1.05;100.00;98758.63;1769960;80;20960;-67
2022/01/15 11:40:36;;;;;;;31.02;14.53;;;;;;;1.04;100.00;98754.34;1756582;80;21060;-73
2022/01/15 11:43:33;;;;;;;15.28;8.48;;;;;;;1.05;100.00;98763.91;1769348;80;21007;-71
2022/01/15 11:46:07;;;;;;;22.75;12.70;;;;;;;1.02;100.00;98766.95;1778870;80;21149;-65
2022/01/15 11:48:35;;;;;;;23.80;14.85;;;;;;;0.97;100.00;98764.14;1714597;83;21582;-71
2022/01/15 11:51:19;;;;;;;8.08;5.58;;;;;;;0.96;100.00;98773.09;1714364;81;21860;-67
2022/01/15 11:53:51;;;;;;;15.53;9.95;;;;;;;0.98;100.00;98776.83;1752905;79;21012;-70